Schoenchen, Kansas
Current Conditions -  °F | °C
As of 4:15 PM on Monday 26 Jan 2015 (Local Time) from KHYS Reporting Station
Clear Clear  
Wind Chill: 70°   Ceiling: Unl
Heat Index: 70°   Visibility: 10mi
Dew Point: 30°   Wind: 16mph
Humidity: 23%   Direction: 330°NNW
Pressure: 30.04"   Gusts: 24mph
Location:  38.71°N, 99.33°W
Report Text: KHYS 262215Z AUTO 33014G21KT 10SM CLR 21/M01 A3004 RMK AO1
Loading
Personal Weather Stations






























Interactive Weather Map New forecast layout! Learn more

10-Day Weather Forecast

Advertisements
Track Severe Weather on mobile